Time;durP1;ratioP1;P1;durP2;ratioP2;P2;SDS_P1;SDS_P2;PMS_P1;PMS_P2;Temp;Humidity;BMP_temperature;BMP_pressure;BME280_temperature;BME280_humidity;BME280_pressure;Samples;Min_cycle;Max_cycle;Signal;HPM_P1;HPM_P2
2023/06/14 00:01:58;;;;;;;3.72;3.40;;;;;;;16.63;60.19;98138.84;4170152;28;20576;-49
2023/06/14 00:04:04;;;;;;;5.15;4.30;;;;;;;16.67;60.47;98133.53;4143791;28;20801;-49
2023/06/14 00:06:06;;;;;;;3.88;3.58;;;;;;;16.67;60.25;98134.38;4145305;28;20233;-50
2023/06/14 00:08:10;;;;;;;4.85;3.88;;;;;;;16.60;60.29;98133.09;4151315;28;21143;-49
2023/06/14 00:10:12;;;;;;;4.32;3.67;;;;;;;16.58;60.21;98130.66;4153855;28;20263;-49
2023/06/14 00:12:14;;;;;;;4.38;4.05;;;;;;;16.62;60.30;98137.22;4139002;28;20209;-50
2023/06/14 00:14:16;;;;;;;3.95;3.65;;;;;;;16.62;60.31;98139.97;4137824;28;20229;-50
2023/06/14 00:16:19;;;;;;;4.57;3.75;;;;;;;16.60;60.35;98131.16;4143570;28;20667;-49
2023/06/14 00:18:23;;;;;;;4.95;4.45;;;;;;;16.61;60.72;98124.53;4165432;28;20218;-50
2023/06/14 00:20:26;;;;;;;4.18;3.78;;;;;;;16.56;60.71;98124.59;4136298;28;20253;-50
2023/06/14 00:22:28;;;;;;;4.95;4.55;;;;;;;16.52;60.68;98126.31;4138100;28;20213;-49
2023/06/14 00:24:30;;;;;;;5.07;4.57;;;;;;;16.54;61.04;98121.31;4141429;28;20763;-49
2023/06/14 00:26:32;;;;;;;4.88;4.13;;;;;;;16.54;61.12;98120.47;4168832;28;20220;-49
2023/06/14 00:28:34;;;;;;;5.25;4.80;;;;;;;16.53;61.51;98122.44;4141972;28;20202;-50
2023/06/14 00:30:35;;;;;;;5.55;3.85;;;;;;;16.52;61.72;98125.47;4150389;28;20217;-49
2023/06/14 00:32:37;;;;;;;5.60;5.10;;;;;;;16.48;61.84;98122.50;4143542;28;20209;-50
2023/06/14 00:34:39;;;;;;;4.25;3.85;;;;;;;16.39;62.33;98124.28;4134205;28;20296;-49
2023/06/14 00:36:41;;;;;;;4.97;4.57;;;;;;;16.34;62.69;98129.84;4160358;28;20197;-50
2023/06/14 00:38:42;;;;;;;5.32;4.82;;;;;;;16.26;63.19;98127.75;4141684;28;20213;-50
2023/06/14 00:40:44;;;;;;;4.68;4.38;;;;;;;16.20;63.27;98128.94;4137138;28;20202;-50
2023/06/14 00:42:46;;;;;;;4.05;3.75;;;;;;;16.16;63.33;98130.63;4135948;28;20213;-49
2023/06/14 00:44:47;;;;;;;4.68;4.28;;;;;;;16.07;63.90;98132.41;4141601;28;20233;-49
2023/06/14 00:46:49;;;;;;;4.53;4.18;;;;;;;15.99;63.72;98133.06;4138343;28;20280;-48
2023/06/14 00:48:51;;;;;;;4.68;4.35;;;;;;;15.95;64.20;98137.50;4135394;28;20595;-49
2023/06/14 00:50:55;;;;;;;5.20;4.13;;;;;;;15.89;64.33;98135.91;4135382;28;20261;-49
2023/06/14 00:52:57;;;;;;;4.43;4.03;;;;;;;15.87;64.45;98138.16;4135525;28;20821;-49
2023/06/14 00:54:59;;;;;;;6.57;4.90;;;;;;;15.83;64.91;98136.28;4140678;28;20298;-48
2023/06/14 00:57:01;;;;;;;4.15;3.78;;;;;;;15.72;64.85;98138.31;4143751;28;20202;-49
2023/06/14 00:59:03;;;;;;;5.18;4.68;;;;;;;15.70;64.92;98139.72;4138508;28;20251;-50
2023/06/14 01:01:05;;;;;;;4.28;3.90;;;;;;;15.64;64.98;98136.19;4143787;28;20634;-49
2023/06/14 01:03:07;;;;;;;7.13;4.63;;;;;;;15.62;65.27;98143.94;4142201;28;20206;-49
2023/06/14 01:05:10;;;;;;;6.85;4.68;;;;;;;15.61;65.47;98130.44;4150242;28;20233;-49
2023/06/14 01:07:18;;;;;;;5.07;4.75;;;;;;;15.58;65.48;98134.63;4144530;28;20279;-50
2023/06/14 01:09:35;;;;;;;4.18;3.88;;;;;;;15.55;65.51;98140.69;4171111;28;20250;-49
2023/06/14 01:12:00;;;;;;;5.15;4.70;;;;;;;15.52;65.74;98149.56;4140884;28;20204;-49
2023/06/14 01:14:03;;;;;;;4.90;4.50;;;;;;;15.45;66.12;98143.56;4139782;28;20229;-49
2023/06/14 01:16:07;;;;;;;5.45;4.93;;;;;;;15.52;66.05;98149.56;4140084;28;20206;-49
2023/06/14 01:18:16;;;;;;;5.05;4.55;;;;;;;15.61;65.54;98153.34;4140153;28;20587;-51
2023/06/14 01:20:22;;;;;;;4.13;3.83;;;;;;;15.65;64.98;98151.66;4146233;28;20288;-49
2023/06/14 01:22:26;;;;;;;5.30;4.63;;;;;;;15.65;64.96;98159.09;4172014;28;20677;-49
2023/06/14 01:24:31;;;;;;;5.63;3.95;;;;;;;15.60;65.34;98165.47;4169699;28;20228;-49
2023/06/14 01:26:34;;;;;;;5.38;4.88;;;;;;;15.49;65.42;98161.16;4138372;28;20236;-50
2023/06/14 01:28:36;;;;;;;5.78;5.10;;;;;;;15.45;65.71;98160.13;4154262;28;20216;-49
2023/06/14 01:30:45;;;;;;;6.00;4.43;;;;;;;15.39;66.17;98158.50;4171122;28;20248;-49
2023/06/14 01:32:48;;;;;;;5.15;4.75;;;;;;;15.34;66.61;98158.56;4147021;28;20292;-49
2023/06/14 01:34:49;;;;;;;5.35;4.95;;;;;;;15.33;66.70;98156.06;4140067;28;20774;-49
2023/06/14 01:36:52;;;;;;;5.25;4.85;;;;;;;15.35;66.95;98160.19;4138496;28;20613;-49
2023/06/14 01:38:56;;;;;;;4.30;3.92;;;;;;;15.28;66.96;98165.19;4154601;28;20209;-49
2023/06/14 01:40:59;;;;;;;4.90;4.60;;;;;;;15.27;66.88;98169.06;4155352;28;20264;-49
2023/06/14 01:43:01;;;;;;;4.70;4.35;;;;;;;15.24;66.97;98168.81;4153620;28;20209;-50
2023/06/14 01:45:05;;;;;;;5.07;4.50;;;;;;;15.21;67.00;98174.88;4153460;28;20229;-49
2023/06/14 01:47:07;;;;;;;5.18;4.78;;;;;;;15.23;67.00;98179.00;4170669;28;20714;-50
2023/06/14 01:49:09;;;;;;;4.63;4.22;;;;;;;15.18;67.04;98170.81;4152842;28;20592;-51
2023/06/14 01:51:10;;;;;;;5.60;5.20;;;;;;;15.14;67.18;98169.72;4141341;28;20213;-49
2023/06/14 01:53:12;;;;;;;6.22;5.32;;;;;;;15.14;67.17;98174.38;4153261;28;20764;-49
2023/06/14 01:55:14;;;;;;;4.85;4.45;;;;;;;15.05;67.59;98171.44;4145056;28;20229;-50
2023/06/14 01:57:16;;;;;;;5.28;4.88;;;;;;;15.02;68.12;98176.72;4145467;28;20252;-49
2023/06/14 01:59:17;;;;;;;5.63;5.22;;;;;;;15.05;68.04;98168.69;4145673;28;20679;-50
2023/06/14 02:01:21;;;;;;;4.97;4.60;;;;;;;15.03;67.74;98168.13;4170043;28;20205;-49
2023/06/14 02:03:23;;;;;;;5.05;4.65;;;;;;;15.05;67.47;98168.69;4170504;28;20291;-49
2023/06/14 02:05:25;;;;;;;4.57;4.18;;;;;;;14.96;67.35;98167.63;4143525;28;20926;-50
2023/06/14 02:07:26;;;;;;;4.50;4.20;;;;;;;14.93;67.53;98168.22;4143629;28;20275;-50
2023/06/14 02:09:28;;;;;;;4.72;4.32;;;;;;;14.89;67.39;98156.13;4138176;28;20297;-50
2023/06/14 02:11:30;;;;;;;14.70;5.03;;;;;;;14.83;67.74;98168.28;4138313;28;20249;-49
2023/06/14 02:13:32;;;;;;;4.63;4.32;;;;;;;14.78;67.92;98168.34;4151799;28;20211;-49
2023/06/14 02:15:33;;;;;;;4.15;3.85;;;;;;;14.74;68.33;98175.50;4170576;28;20677;-49
2023/06/14 02:17:36;;;;;;;4.63;4.32;;;;;;;14.74;68.51;98175.50;4144727;28;20201;-50
2023/06/14 02:19:37;;;;;;;4.93;4.50;;;;;;;14.73;68.60;98176.63;4144213;28;20659;-50
2023/06/14 02:21:39;;;;;;;4.57;4.18;;;;;;;14.68;68.89;98171.13;4153012;28;20688;-49
2023/06/14 02:23:41;;;;;;;4.95;4.50;;;;;;;14.67;69.10;98169.50;4139459;28;20718;-50
2023/06/14 02:25:44;;;;;;;4.15;3.85;;;;;;;14.62;69.33;98177.78;4138179;28;20285;-49
2023/06/14 02:27:46;;;;;;;8.40;4.65;;;;;;;14.65;69.34;98182.75;4145187;28;20205;-51
2023/06/14 02:29:48;;;;;;;4.30;3.90;;;;;;;14.60;69.42;98180.00;4129127;28;20280;-50
2023/06/14 02:31:49;;;;;;;5.00;4.15;;;;;;;14.62;69.95;98172.28;4146005;28;20209;-49
2023/06/14 02:33:51;;;;;;;7.07;4.47;;;;;;;14.60;70.32;98177.25;4152364;28;20242;-49
2023/06/14 02:35:53;;;;;;;4.55;4.15;;;;;;;14.59;70.24;98172.84;4144771;28;20217;-50
2023/06/14 02:37:55;;;;;;;4.43;4.03;;;;;;;14.56;70.36;98170.66;4138668;28;20213;-49
2023/06/14 02:39:56;;;;;;;3.78;3.47;;;;;;;14.53;70.69;98179.50;4141170;28;20206;-50
2023/06/14 02:41:58;;;;;;;4.30;3.90;;;;;;;14.45;71.12;98182.00;4142579;28;20213;-49
2023/06/14 02:44:00;;;;;;;6.80;4.88;;;;;;;14.43;70.85;98185.03;4157467;28;20236;-50
2023/06/14 02:46:02;;;;;;;5.13;4.82;;;;;;;14.41;71.48;98184.50;4144500;28;20675;-51
2023/06/14 02:48:04;;;;;;;5.88;4.20;;;;;;;14.43;71.67;98184.22;4145639;28;20206;-49
2023/06/14 02:50:07;;;;;;;4.50;4.20;;;;;;;14.44;71.62;98188.63;4144362;28;20217;-50
2023/06/14 02:52:09;;;;;;;3.95;3.65;;;;;;;14.50;71.27;98180.03;4147017;28;20870;-50
2023/06/14 02:54:10;;;;;;;4.78;4.38;;;;;;;14.47;70.87;98185.28;4152723;28;20228;-50
2023/06/14 02:56:13;;;;;;;4.40;4.00;;;;;;;14.44;70.94;98180.38;4140520;28;20202;-50
2023/06/14 02:58:15;;;;;;;4.70;4.40;;;;;;;14.44;71.03;98191.38;4137167;28;20214;-50
2023/06/14 03:00:17;;;;;;;6.13;5.68;;;;;;;14.33;71.30;98179.59;4150426;28;20217;-50
2023/06/14 03:02:20;;;;;;;4.72;4.43;;;;;;;14.30;71.44;98174.63;4137807;28;20210;-49
2023/06/14 03:04:21;;;;;;;5.68;5.18;;;;;;;14.27;71.64;98186.22;4139640;28;20812;-50
2023/06/14 03:06:24;;;;;;;5.53;5.13;;;;;;;14.24;72.27;98181.25;4144041;28;20225;-50
2023/06/14 03:08:28;;;;;;;6.20;5.63;;;;;;;14.13;72.87;98187.91;4137146;28;20208;-49
2023/06/14 03:10:30;;;;;;;5.55;5.05;;;;;;;14.15;72.63;98193.94;4167798;28;20304;-51
2023/06/14 03:12:32;;;;;;;4.38;4.07;;;;;;;14.20;72.19;98177.44;4143878;28;20215;-49
2023/06/14 03:14:34;;;;;;;6.97;4.05;;;;;;;14.16;72.20;98190.06;4166851;28;20302;-50
2023/06/14 03:16:37;;;;;;;5.50;5.10;;;;;;;14.13;72.39;98187.91;4144197;28;20202;-50
2023/06/14 03:18:38;;;;;;;4.82;4.43;;;;;;;14.12;72.35;98193.69;4136467;28;20296;-50
2023/06/14 03:20:40;;;;;;;4.90;4.40;;;;;;;14.10;72.34;98196.69;4168345;28;20251;-49
2023/06/14 03:22:45;;;;;;;5.90;4.57;;;;;;;14.08;72.57;98193.41;4137264;28;20205;-50
2023/06/14 03:24:47;;;;;;;5.05;4.65;;;;;;;14.06;72.57;98198.38;4168258;28;20231;-50
2023/06/14 03:26:49;;;;;;;4.32;4.03;;;;;;;14.08;72.84;98193.41;4143653;28;20230;-49
2023/06/14 03:28:51;;;;;;;4.70;4.30;;;;;;;14.08;72.80;98190.66;4152547;28;20259;-50
2023/06/14 03:30:53;;;;;;;5.75;4.65;;;;;;;14.09;72.89;98194.25;4138512;28;20663;-51
2023/06/14 03:32:55;;;;;;;4.55;4.25;;;;;;;14.06;72.89;98203.88;4144122;28;20267;-49
2023/06/14 03:34:57;;;;;;;7.32;3.92;;;;;;;14.04;73.25;98203.31;4143588;28;20320;-49
2023/06/14 03:36:59;;;;;;;5.05;4.55;;;;;;;13.98;73.25;98207.19;4138628;28;20364;-50
2023/06/14 03:39:01;;;;;;;6.25;4.93;;;;;;;13.99;73.56;98206.13;4137935;28;20695;-49
2023/06/14 03:41:02;;;;;;;4.80;4.43;;;;;;;13.99;73.59;98208.84;4166641;28;20255;-50
2023/06/14 03:43:04;;;;;;;4.45;4.15;;;;;;;13.98;73.50;98207.19;4143516;28;20210;-49
2023/06/14 03:45:06;;;;;;;5.63;5.13;;;;;;;14.00;73.71;98207.75;4151307;28;20246;-49
2023/06/14 03:47:08;;;;;;;5.07;4.60;;;;;;;13.99;73.48;98219.88;4139139;28;20275;-49
2023/06/14 03:49:11;;;;;;;5.30;4.45;;;;;;;13.97;73.74;98210.25;4143764;28;20651;-48
2023/06/14 03:51:13;;;;;;;8.32;5.22;;;;;;;13.99;73.91;98210.78;4143798;28;20214;-51
2023/06/14 03:53:14;;;;;;;6.72;5.93;;;;;;;13.96;73.98;98212.16;4160462;28;20212;-49
2023/06/14 03:55:16;;;;;;;5.35;4.93;;;;;;;13.92;74.13;98213.00;4151188;28;20233;-50
2023/06/14 03:57:21;;;;;;;6.13;4.95;;;;;;;13.97;74.26;98208.28;4150413;28;20208;-49
2023/06/14 03:59:23;;;;;;;4.97;4.50;;;;;;;13.98;74.46;98215.44;4142757;28;20734;-49
2023/06/14 04:01:29;;;;;;;4.80;4.43;;;;;;;14.00;74.09;98223.41;4143783;28;20742;-50
2023/06/14 04:03:30;;;;;;;4.95;4.53;;;;;;;13.94;74.20;98219.88;4168083;28;20258;-50
2023/06/14 04:05:32;;;;;;;5.72;5.15;;;;;;;14.05;74.26;98221.50;4153939;28;20232;-50
2023/06/14 04:07:39;;;;;;;5.28;4.22;;;;;;;14.02;74.19;98221.22;4143222;28;20329;-50
2023/06/14 04:09:41;;;;;;;4.40;4.03;;;;;;;14.01;74.24;98230.56;4150769;28;20204;-50
2023/06/14 04:11:43;;;;;;;4.18;3.78;;;;;;;14.01;74.22;98220.41;4168716;28;20216;-50
2023/06/14 04:13:45;;;;;;;6.05;5.60;;;;;;;13.99;74.11;98222.63;4171555;28;20304;-50
2023/06/14 04:15:46;;;;;;;9.00;4.38;;;;;;;14.05;74.21;98228.91;4143488;28;20205;-50
2023/06/14 04:17:48;;;;;;;4.32;4.03;;;;;;;14.08;74.18;98231.94;4142188;28;20292;-49
2023/06/14 04:19:50;;;;;;;4.95;4.63;;;;;;;14.05;74.51;98235.25;4122119;28;20218;-51
2023/06/14 04:21:52;;;;;;;5.53;5.13;;;;;;;14.06;74.61;98236.91;4143166;28;20220;-49
2023/06/14 04:23:55;;;;;;;5.40;4.38;;;;;;;14.03;74.67;98239.38;4141988;28;20581;-49
2023/06/14 04:26:02;;;;;;;5.15;4.75;;;;;;;14.06;74.83;98236.91;4137773;28;20216;-50
2023/06/14 04:28:04;;;;;;;5.10;4.80;;;;;;;14.06;75.01;98244.31;4168963;28;20200;-49
2023/06/14 04:30:07;;;;;;;7.57;4.65;;;;;;;14.06;74.70;98238.81;4167917;28;20211;-50
2023/06/14 04:32:10;;;;;;;6.43;4.88;;;;;;;14.08;75.11;98242.94;4135696;28;20217;-50
2023/06/14 04:34:18;;;;;;;5.35;4.85;;;;;;;14.06;75.15;98249.81;4133746;28;20279;-49
2023/06/14 04:36:20;;;;;;;4.57;4.18;;;;;;;14.13;75.43;98244.84;4143250;28;20201;-49
2023/06/14 04:38:25;;;;;;;5.93;4.30;;;;;;;14.14;75.26;98252.84;4168212;28;20211;-50
2023/06/14 04:40:26;;;;;;;5.38;4.93;;;;;;;14.18;75.58;98247.59;4138500;28;20668;-49
2023/06/14 04:42:30;;;;;;;5.35;4.85;;;;;;;14.22;75.62;98254.22;4142968;28;20209;-50
2023/06/14 04:44:32;;;;;;;5.45;4.78;;;;;;;14.23;75.77;98253.94;4135911;28;20233;-49
2023/06/14 04:46:45;;;;;;;5.18;4.82;;;;;;;14.27;75.72;98257.78;4167700;28;20212;-50
2023/06/14 04:48:50;;;;;;;4.53;4.13;;;;;;;14.33;76.31;98264.94;4157444;28;20282;-49
2023/06/14 04:50:52;;;;;;;4.68;4.30;;;;;;;14.38;76.66;98264.88;4150436;28;20299;-49
2023/06/14 04:52:55;;;;;;;5.32;4.93;;;;;;;14.41;76.88;98267.09;4142787;28;20580;-48
2023/06/14 04:54:56;;;;;;;6.07;5.53;;;;;;;14.35;76.32;98270.97;4167766;28;20733;-50
2023/06/14 04:56:58;;;;;;;5.55;4.60;;;;;;;14.43;76.03;98273.13;4120772;28;20784;-51
2023/06/14 04:59:00;;;;;;;5.38;4.88;;;;;;;14.54;75.37;98272.00;4142363;28;20220;-48
2023/06/14 05:01:02;;;;;;;5.30;4.70;;;;;;;14.57;74.58;98274.19;4148131;28;20204;-49
2023/06/14 05:03:05;;;;;;;5.80;4.88;;;;;;;14.61;74.07;98275.28;4143248;28;20210;-49
2023/06/14 05:05:08;;;;;;;20.25;5.43;;;;;;;14.69;73.52;98274.69;4139630;28;20228;-49
2023/06/14 05:07:10;;;;;;;6.53;5.18;;;;;;;14.68;73.56;98275.81;4133840;28;20209;-49
2023/06/14 05:09:14;;;;;;;5.85;5.15;;;;;;;14.79;72.59;98271.91;4139351;28;20247;-49
2023/06/14 05:11:16;;;;;;;5.85;5.32;;;;;;;14.66;72.84;98280.78;4134205;28;20253;-49
2023/06/14 05:13:18;;;;;;;5.43;5.03;;;;;;;14.78;72.67;98280.44;4151795;28;20221;-50
2023/06/14 05:15:25;;;;;;;5.00;4.40;;;;;;;14.83;71.19;98284.00;4143801;28;20248;-50
2023/06/14 05:17:27;;;;;;;5.57;4.30;;;;;;;14.92;71.25;98290.56;4165370;28;20324;-49
2023/06/14 05:19:29;;;;;;;7.20;4.97;;;;;;;15.00;70.88;98284.47;4132987;28;20275;-49
2023/06/14 05:21:34;;;;;;;4.85;4.38;;;;;;;15.17;69.94;98289.59;4165239;28;20227;-49
2023/06/14 05:23:44;;;;;;;5.05;4.55;;;;;;;15.28;69.72;98280.13;4141104;28;20621;-49
2023/06/14 05:25:46;;;;;;;4.72;4.22;;;;;;;15.25;69.93;98283.47;4133792;28;20727;-49
2023/06/14 05:27:48;;;;;;;9.15;3.75;;;;;;;15.46;69.14;98290.53;4166556;28;20245;-48
2023/06/14 05:29:50;;;;;;;4.38;3.97;;;;;;;15.44;69.41;98285.28;4136416;28;20240;-50
2023/06/14 05:31:52;;;;;;;4.60;4.30;;;;;;;15.49;69.30;98288.03;4138031;28;20650;-49
2023/06/14 05:33:54;;;;;;;5.95;4.85;;;;;;;15.61;68.88;98284.91;4136691;28;20244;-49
2023/06/14 05:35:56;;;;;;;9.07;4.00;;;;;;;15.63;69.13;98285.47;4150525;28;20201;-49
2023/06/14 05:37:58;;;;;;;3.97;3.67;;;;;;;15.82;68.77;98280.88;4135841;28;20349;-48
2023/06/14 05:40:00;;;;;;;5.80;3.97;;;;;;;16.02;68.34;98270.47;4133913;28;20205;-49
2023/06/14 05:42:02;;;;;;;4.07;3.75;;;;;;;16.22;66.48;98275.78;4166907;28;20850;-49
2023/06/14 05:44:03;;;;;;;4.88;4.43;;;;;;;16.38;66.13;98280.06;4142839;28;20229;-49
2023/06/14 05:46:05;;;;;;;3.58;3.33;;;;;;;16.50;66.23;98283.22;4143286;28;20210;-49
2023/06/14 05:48:07;;;;;;;3.38;3.08;;;;;;;16.78;67.10;98279.59;4166634;28;20282;-49
2023/06/14 05:50:09;;;;;;;3.83;3.53;;;;;;;16.98;64.59;98285.66;4149277;28;20201;-50
2023/06/14 05:52:12;;;;;;;4.40;3.97;;;;;;;17.07;64.35;98288.59;4135342;28;20243;-49
2023/06/14 05:54:14;;;;;;;5.78;4.30;;;;;;;17.22;64.46;98288.38;4137652;28;20233;-50
2023/06/14 05:56:19;;;;;;;4.40;3.30;;;;;;;17.44;64.43;98288.66;4151443;28;20217;-49
2023/06/14 05:58:22;;;;;;;4.82;3.33;;;;;;;17.77;64.16;98287.56;4138071;28;20217;-49
2023/06/14 06:00:23;;;;;;;4.05;3.08;;;;;;;17.96;62.93;98296.66;4171340;28;20207;-50
2023/06/14 06:02:25;;;;;;;4.72;3.97;;;;;;;18.16;62.59;98290.75;4138800;28;20252;-49
2023/06/14 06:04:27;;;;;;;6.00;4.05;;;;;;;18.43;61.48;98300.00;4169694;28;20243;-49
2023/06/14 06:06:29;;;;;;;4.15;3.75;;;;;;;18.36;59.96;98293.19;4139928;28;20209;-49
2023/06/14 06:08:31;;;;;;;8.23;3.75;;;;;;;18.44;59.18;98303.59;4169346;28;20200;-49
2023/06/14 06:10:32;;;;;;;3.15;2.85;;;;;;;18.73;59.53;98301.34;4145544;28;20748;-50
2023/06/14 06:12:34;;;;;;;3.67;3.22;;;;;;;18.97;58.83;98299.19;4137203;28;20213;-49
2023/06/14 06:14:36;;;;;;;5.20;3.00;;;;;;;19.19;58.41;98302.84;4152033;28;20241;-50
2023/06/14 06:16:38;;;;;;;15.35;4.47;;;;;;;19.37;58.04;98298.34;4136236;28;20672;-49
2023/06/14 06:18:39;;;;;;;6.45;3.40;;;;;;;19.54;57.31;98304.03;4138269;28;20256;-49
2023/06/14 06:20:43;;;;;;;11.48;3.50;;;;;;;19.70;56.72;98303.38;4169140;28;20211;-51
2023/06/14 06:22:45;;;;;;;3.25;3.05;;;;;;;19.76;56.56;98309.63;4137233;28;20218;-49
2023/06/14 06:24:47;;;;;;;4.43;2.92;;;;;;;19.92;56.19;98303.38;4150398;28;20318;-49
2023/06/14 06:26:49;;;;;;;4.55;3.70;;;;;;;19.64;55.09;98312.16;4145037;28;20686;-50
2023/06/14 06:28:50;;;;;;;5.30;3.33;;;;;;;19.83;55.74;98313.63;4171953;28;20274;-55
2023/06/14 06:30:53;;;;;;;4.03;3.72;;;;;;;19.94;55.55;98311.41;4150988;28;20208;-51
2023/06/14 06:32:58;;;;;;;3.85;3.00;;;;;;;20.22;55.97;98316.56;4140680;28;20753;-52
2023/06/14 06:35:00;;;;;;;6.53;3.60;;;;;;;20.16;54.38;98311.44;4154977;28;20235;-53
2023/06/14 06:37:02;;;;;;;5.45;3.58;;;;;;;20.44;54.73;98312.94;4138220;28;20246;-51
2023/06/14 06:39:09;;;;;;;14.95;4.15;;;;;;;20.74;54.48;98314.88;4137457;28;20213;-50
2023/06/14 06:41:11;;;;;;;8.93;3.72;;;;;;;20.75;53.15;98313.72;4144469;28;21216;-50
2023/06/14 06:43:13;;;;;;;4.25;3.05;;;;;;;20.36;51.86;98319.25;4167970;28;20216;-49
2023/06/14 06:45:15;;;;;;;18.38;3.70;;;;;;;19.97;52.10;98327.47;4144329;28;20283;-50
2023/06/14 06:47:17;;;;;;;4.68;2.92;;;;;;;19.86;51.20;98326.06;4144078;28;20213;-50
2023/06/14 06:49:19;;;;;;;9.80;3.00;;;;;;;19.82;51.72;98333.34;4144366;28;20209;-49
2023/06/14 06:51:20;;;;;;;5.10;3.42;;;;;;;19.81;51.07;98334.50;4144982;28;20221;-51
2023/06/14 06:53:22;;;;;;;3.03;2.78;;;;;;;19.90;51.49;98332.63;4139891;28;20678;-50
2023/06/14 06:55:35;;;;;;;24.95;3.45;;;;;;;20.34;51.43;98338.19;4144503;28;20249;-50
2023/06/14 06:57:40;;;;;;;3.00;2.65;;;;;;;20.33;50.92;98342.13;4145220;28;20240;-51
2023/06/14 06:59:42;;;;;;;3.90;3.30;;;;;;;20.29;51.38;98341.94;4137627;28;20213;-49
2023/06/14 07:01:44;;;;;;;4.22;3.58;;;;;;;20.35;50.64;98339.84;4136562;28;20231;-49
2023/06/14 07:03:46;;;;;;;3.80;3.10;;;;;;;20.34;51.19;98340.97;4151833;28;20217;-51
2023/06/14 07:05:47;;;;;;;15.90;2.58;;;;;;;20.46;50.97;98344.00;4142821;28;20565;-51
2023/06/14 07:07:49;;;;;;;5.57;3.25;;;;;;;20.52;50.04;98357.44;4138107;28;20220;-51
2023/06/14 07:09:52;;;;;;;3.85;3.20;;;;;;;20.69;49.40;98351.16;4153077;28;20239;-49
2023/06/14 07:11:53;;;;;;;2.80;2.53;;;;;;;20.59;50.03;98357.00;4143856;28;20588;-51
2023/06/14 07:13:55;;;;;;;6.32;3.03;;;;;;;20.88;49.72;98355.41;4169557;28;20317;-49
2023/06/14 07:16:00;;;;;;;3.40;2.80;;;;;;;20.62;49.85;98367.47;4168965;28;20755;-49
2023/06/14 07:18:02;;;;;;;3.60;3.30;;;;;;;20.67;50.26;98365.41;4135723;28;20224;-49
2023/06/14 07:20:08;;;;;;;3.85;3.55;;;;;;;20.62;50.46;98361.91;4169186;28;20204;-49
2023/06/14 07:22:09;;;;;;;4.85;3.70;;;;;;;20.95;49.67;98361.31;4143435;28;20205;-50
2023/06/14 07:24:11;;;;;;;8.73;3.17;;;;;;;20.92;49.33;98361.13;4136342;28;20316;-50
2023/06/14 07:26:14;;;;;;;4.40;3.05;;;;;;;21.32;49.68;98359.97;4136810;28;20625;-50
2023/06/14 07:28:16;;;;;;;5.18;2.83;;;;;;;21.09;49.13;98367.59;4145833;28;20271;-51
2023/06/14 07:30:19;;;;;;;2.95;2.65;;;;;;;21.29;48.37;98366.19;4138655;28;20300;-52
2023/06/14 07:32:21;;;;;;;3.72;3.28;;;;;;;21.30;49.04;98362.28;4139171;28;20288;-51
2023/06/14 07:34:22;;;;;;;3.65;2.97;;;;;;;21.20;48.76;98366.19;4147157;28;20264;-49
2023/06/14 07:36:24;;;;;;;13.80;3.13;;;;;;;21.60;48.45;98372.50;4140398;28;20208;-49
2023/06/14 07:38:26;;;;;;;3.78;2.55;;;;;;;21.82;49.18;98372.38;4145173;28;20237;-49
2023/06/14 07:40:28;;;;;;;3.83;3.45;;;;;;;21.85;48.37;98366.97;4155622;28;20242;-49
2023/06/14 07:42:30;;;;;;;3.95;2.97;;;;;;;21.66;48.69;98371.19;4128759;28;20209;-49
2023/06/14 07:44:31;;;;;;;3.05;2.70;;;;;;;22.16;48.03;98369.59;4144967;28;20290;-50
2023/06/14 07:46:34;;;;;;;4.30;3.03;;;;;;;22.31;47.84;98372.72;4143185;28;20239;-49
2023/06/14 07:48:36;;;;;;;8.60;3.20;;;;;;;21.81;47.11;98373.53;4166099;28;20211;-50
2023/06/14 07:50:38;;;;;;;6.05;2.70;;;;;;;21.87;47.02;98375.03;4134830;28;20291;-49
2023/06/14 07:52:40;;;;;;;2.50;2.30;;;;;;;21.83;47.18;98377.66;4167563;28;20578;-51
2023/06/14 07:54:41;;;;;;;4.95;2.78;;;;;;;22.21;47.27;98372.25;4142675;28;20235;-49
2023/06/14 07:56:43;;;;;;;3.35;2.95;;;;;;;22.37;46.13;98371.41;4152889;28;20223;-49
2023/06/14 07:58:45;;;;;;;5.50;2.97;;;;;;;22.03;46.67;98376.19;4142606;28;20732;-49
2023/06/14 08:00:47;;;;;;;13.20;4.55;;;;;;;22.17;48.87;98377.66;4137085;28;20267;-49
2023/06/14 08:02:50;;;;;;;3.90;2.25;;;;;;;22.65;46.94;98367.13;4143031;28;20197;-49
2023/06/14 08:04:55;;;;;;;9.05;3.00;;;;;;;22.57;45.48;98375.53;4137152;28;20225;-49
2023/06/14 08:06:57;;;;;;;2.88;2.67;;;;;;;22.52;46.07;98375.69;4140719;28;20205;-49
2023/06/14 08:08:59;;;;;;;2.90;2.70;;;;;;;22.36;45.56;98368.94;4139564;28;20264;-50
2023/06/14 08:11:00;;;;;;;3.20;2.92;;;;;;;22.35;45.51;98370.94;4158185;28;20207;-50
2023/06/14 08:13:03;;;;;;;8.25;3.20;;;;;;;22.41;45.57;98371.56;4152135;28;20254;-50
2023/06/14 08:15:05;;;;;;;2.65;2.45;;;;;;;22.46;46.16;98368.66;4136153;28;20769;-49
2023/06/14 08:17:15;;;;;;;3.50;2.67;;;;;;;22.79;45.50;98366.94;4138371;28;20200;-50
2023/06/14 08:19:17;;;;;;;9.05;3.10;;;;;;;22.97;44.90;98362.94;4142333;28;20440;-52
2023/06/14 08:21:19;;;;;;;7.65;2.67;;;;;;;22.73;45.13;98362.69;4126863;28;20206;-52
2023/06/14 08:23:21;;;;;;;6.90;2.50;;;;;;;22.40;44.75;98367.97;4143373;28;20217;-52
2023/06/14 08:25:23;;;;;;;2.80;2.47;;;;;;;22.47;45.12;98371.13;4141442;28;20268;-52
2023/06/14 08:27:25;;;;;;;2.75;2.55;;;;;;;22.64;45.13;98370.25;4167865;28;20203;-49
2023/06/14 08:29:30;;;;;;;4.75;2.88;;;;;;;23.14;45.11;98374.03;4136848;28;20204;-49
2023/06/14 08:31:33;;;;;;;5.65;3.40;;;;;;;23.19;44.56;98362.72;4151328;28;20256;-51
2023/06/14 08:33:34;;;;;;;5.07;3.28;;;;;;;23.46;44.68;98365.03;4136845;28;20743;-51
2023/06/14 08:35:38;;;;;;;11.93;3.03;;;;;;;22.98;43.95;98370.97;4142086;28;20324;-50
2023/06/14 08:37:41;;;;;;;4.63;2.53;;;;;;;22.77;43.95;98369.25;4137241;28;20206;-51
2023/06/14 08:39:44;;;;;;;3.35;3.05;;;;;;;23.22;44.52;98376.81;4169431;28;20235;-50
2023/06/14 08:41:49;;;;;;;5.18;2.22;;;;;;;23.29;43.02;98376.28;4137634;28;20561;-50
2023/06/14 08:43:52;;;;;;;3.35;2.20;;;;;;;22.66;42.92;98373.53;4143906;28;20208;-49
2023/06/14 08:45:59;;;;;;;3.33;2.58;;;;;;;23.61;42.93;98378.41;4140411;28;20633;-49
2023/06/14 08:48:01;;;;;;;5.40;2.38;;;;;;;23.38;42.99;98368.69;4144607;28;20204;-50
2023/06/14 08:50:04;;;;;;;6.50;2.63;;;;;;;23.64;42.61;98372.97;4143364;28;20699;-49
2023/06/14 08:52:08;;;;;;;3.40;2.42;;;;;;;23.64;42.69;98374.97;4136603;28;20251;-49
2023/06/14 08:54:11;;;;;;;4.15;2.45;;;;;;;23.98;42.86;98377.56;4135325;28;20240;-49
2023/06/14 08:56:13;;;;;;;5.18;2.60;;;;;;;23.88;42.78;98377.94;4137367;28;20200;-50
2023/06/14 08:58:15;;;;;;;6.75;2.70;;;;;;;23.28;42.83;98374.66;4167081;28;20633;-49
2023/06/14 09:00:18;;;;;;;2.22;2.00;;;;;;;23.97;42.76;98382.31;4167534;28;20223;-49
2023/06/14 09:02:22;;;;;;;2.42;1.88;;;;;;;24.15;42.52;98379.06;4134636;28;20205;-50
2023/06/14 09:04:29;;;;;;;3.33;2.08;;;;;;;24.17;41.65;98376.75;4143061;28;20231;-52
2023/06/14 09:06:34;;;;;;;2.55;2.35;;;;;;;24.16;40.30;98375.09;4138304;28;20561;-49
2023/06/14 09:08:35;;;;;;;2.78;2.13;;;;;;;23.92;40.15;98378.91;4127839;28;20248;-51
2023/06/14 09:10:37;;;;;;;3.03;1.88;;;;;;;23.66;40.04;98378.22;4150243;28;20212;-49
2023/06/14 09:12:40;;;;;;;2.17;1.35;;;;;;;23.61;40.98;98375.63;4136743;28;20235;-49
2023/06/14 09:14:42;;;;;;;2.15;1.40;;;;;;;23.08;40.01;98369.78;4138316;28;20227;-50
2023/06/14 09:16:44;;;;;;;6.18;2.47;;;;;;;23.28;40.46;98380.25;4140349;28;20669;-51
2023/06/14 09:18:49;;;;;;;4.50;1.90;;;;;;;23.21;41.41;98374.34;4137103;28;20328;-49
2023/06/14 09:20:51;;;;;;;5.32;2.03;;;;;;;23.18;40.24;98375.03;4126419;28;20683;-50
2023/06/14 09:22:53;;;;;;;2.88;2.22;;;;;;;23.92;41.50;98379.75;4137620;28;20259;-49
2023/06/14 09:24:55;;;;;;;2.63;2.42;;;;;;;24.26;39.62;98374.69;4149450;28;20225;-50
2023/06/14 09:26:58;;;;;;;2.20;1.77;;;;;;;24.03;39.63;98376.19;4149059;28;20220;-49
2023/06/14 09:29:00;;;;;;;3.72;1.98;;;;;;;24.07;40.03;98377.13;4154690;28;20212;-49
2023/06/14 09:31:02;;;;;;;5.45;2.17;;;;;;;24.43;39.54;98385.72;4168642;28;20204;-49
2023/06/14 09:33:04;;;;;;;2.70;2.03;;;;;;;24.41;39.53;98399.22;4139762;28;20626;-50
2023/06/14 09:35:07;;;;;;;4.07;1.85;;;;;;;24.50;39.02;98380.41;4146004;28;20669;-49
2023/06/14 09:37:09;;;;;;;3.63;1.83;;;;;;;25.33;39.73;98376.22;4145346;28;20231;-49
2023/06/14 09:39:17;;;;;;;4.50;1.48;;;;;;;25.61;39.76;98393.16;4144972;28;20224;-51